Time;durP1;ratioP1;P1;durP2;ratioP2;P2;SDS_P1;SDS_P2;PMS_P1;PMS_P2;Temp;Humidity;BMP_temperature;BMP_pressure;BME280_temperature;BME280_humidity;BME280_pressure;Samples;Min_cycle;Max_cycle;Signal;HPM_P1;HPM_P2
2023/10/02 00:01:10;;;;;;;5.20;2.03;;;;;;;19.40;97.73;101512.47;7360992;19;20640;-66
2023/10/02 00:03:39;;;;;;;6.82;3.30;;;;;;;19.41;98.32;101508.81;7360344;19;20018;-66
2023/10/02 00:06:16;;;;;;;4.20;1.98;;;;;;;19.42;99.04;101504.28;7361612;19;20014;-65
2023/10/02 00:08:48;;;;;;;5.53;2.30;;;;;;;19.39;98.15;101516.19;7360135;19;20023;-66
2023/10/02 00:11:35;;;;;;;6.10;1.58;;;;;;;19.34;97.87;101523.97;7363551;19;20579;-65
2023/10/02 00:14:23;;;;;;;6.30;1.92;;;;;;;19.34;98.07;101513.28;7359425;19;20015;-66
2023/10/02 00:16:59;;;;;;;6.63;1.85;;;;;;;19.33;98.22;101508.13;7358324;19;20018;-64
2023/10/02 00:19:39;;;;;;;4.10;1.30;;;;;;;19.32;98.56;101511.81;7359504;19;20014;-65
2023/10/02 00:22:38;;;;;;;5.57;2.00;;;;;;;19.32;98.51;101507.31;7357479;19;20015;-66
2023/10/02 00:25:16;;;;;;;5.80;1.73;;;;;;;19.32;99.12;101507.31;7357688;19;20038;-66
2023/10/02 00:27:48;;;;;;;5.60;1.77;;;;;;;19.32;98.84;101506.47;7358545;19;20048;-64
2023/10/02 00:30:20;;;;;;;4.70;1.37;;;;;;;19.30;98.45;101516.53;7360105;19;20010;-65
2023/10/02 00:32:49;;;;;;;3.10;1.55;;;;;;;19.30;98.45;101516.53;7359879;19;20271;-65
2023/10/02 00:35:17;;;;;;;4.13;1.17;;;;;;;19.28;98.51;101516.72;7356800;19;20389;-66
2023/10/02 00:37:44;;;;;;;3.40;1.33;;;;;;;19.28;98.24;101511.38;7357013;19;20099;-64
2023/10/02 00:40:14;;;;;;;4.80;1.75;;;;;;;19.28;98.26;101515.88;7359158;19;20019;-65
2023/10/02 00:42:45;;;;;;;4.40;1.83;;;;;;;19.27;98.50;101515.06;7355218;19;20014;-65
2023/10/02 00:45:13;;;;;;;5.80;2.63;;;;;;;19.28;98.46;101518.56;7359021;19;20017;-65
2023/10/02 00:47:47;;;;;;;4.53;1.65;;;;;;;19.25;98.60;101506.41;7359062;19;20018;-65
2023/10/02 00:50:22;;;;;;;5.03;1.60;;;;;;;19.25;98.54;101510.94;7361068;19;20018;-65
2023/10/02 00:52:56;;;;;;;4.75;1.52;;;;;;;19.25;98.53;101513.63;7358827;19;20010;-65
2023/10/02 00:55:32;;;;;;;3.97;1.60;;;;;;;19.27;98.50;101508.88;7355757;19;20118;-66
2023/10/02 00:58:04;;;;;;;4.35;1.33;;;;;;;19.26;98.62;101512.56;7354793;19;20015;-65
2023/10/02 01:00:47;;;;;;;4.80;1.80;;;;;;;19.27;98.72;101500.88;7357270;19;20044;-66
2023/10/02 01:03:17;;;;;;;4.60;1.48;;;;;;;19.26;98.55;101510.72;7359397;19;20038;-65
2023/10/02 01:05:50;;;;;;;3.92;1.25;;;;;;;19.19;98.44;101507.19;7357927;19;20015;-65
2023/10/02 01:08:24;;;;;;;3.92;1.60;;;;;;;19.13;98.97;101508.78;7359777;19;20049;-66
2023/10/02 01:11:02;;;;;;;5.05;1.63;;;;;;;19.08;99.14;101499.72;7357097;19;20033;-64
2023/10/02 01:13:35;;;;;;;4.55;1.60;;;;;;;19.04;99.27;101506.44;7352394;19;20048;-66
2023/10/02 01:16:04;;;;;;;3.88;1.85;;;;;;;19.02;99.83;101509.31;7359151;19;20518;-65
2023/10/02 01:18:33;;;;;;;6.00;2.30;;;;;;;19.05;100.00;101508.06;7358451;19;20541;-66
2023/10/02 01:21:01;;;;;;;5.82;2.00;;;;;;;19.08;99.93;101494.38;7359894;19;20023;-65
2023/10/02 01:23:40;;;;;;;5.82;1.95;;;;;;;19.09;99.93;101493.38;7357241;19;20022;-67
2023/10/02 01:26:07;;;;;;;5.10;1.95;;;;;;;19.09;99.68;101488.03;7358740;19;21902;-65
2023/10/02 01:28:52;;;;;;;4.53;1.85;;;;;;;19.07;99.19;101493.53;7356764;19;20017;-64
2023/10/02 01:31:31;;;;;;;5.65;1.98;;;;;;;19.06;99.37;101499.91;7358276;19;21312;-65
2023/10/02 01:33:59;;;;;;;5.53;1.90;;;;;;;19.07;100.00;101501.56;7354289;19;20305;-65
2023/10/02 01:36:32;;;;;;;8.43;2.00;;;;;;;19.06;100.00;101491.88;7355591;19;20215;-65
2023/10/02 01:39:10;;;;;;;5.07;2.15;;;;;;;19.07;100.00;101484.72;7354262;19;20040;-65
2023/10/02 01:41:37;;;;;;;8.63;3.10;;;;;;;19.07;100.00;101482.03;7359820;19;20438;-65
2023/10/02 01:44:11;;;;;;;5.40;2.35;;;;;;;19.04;100.00;101488.59;7357420;19;21276;-66
2023/10/02 01:46:49;;;;;;;6.35;2.55;;;;;;;19.04;100.00;101485.09;7356932;19;20731;-65
2023/10/02 01:49:24;;;;;;;6.07;2.40;;;;;;;19.03;100.00;101484.28;7356191;19;20081;-65
2023/10/02 01:51:55;;;;;;;4.78;2.53;;;;;;;19.06;100.00;101488.38;7360816;19;20023;-65
2023/10/02 01:54:25;;;;;;;6.47;2.45;;;;;;;19.06;100.00;101497.22;7354756;19;20141;-65
2023/10/02 01:56:55;;;;;;;7.95;3.08;;;;;;;19.04;100.00;101491.28;7357247;19;21039;-66
2023/10/02 01:59:24;;;;;;;7.28;2.28;;;;;;;19.04;100.00;101498.44;7355450;19;20006;-65
2023/10/02 02:01:54;;;;;;;8.13;3.40;;;;;;;19.05;100.00;101503.56;7359165;19;21165;-65
2023/10/02 02:04:22;;;;;;;6.63;2.85;;;;;;;19.06;100.00;101502.56;7357192;19;20037;-65
2023/10/02 02:06:52;;;;;;;7.57;2.85;;;;;;;19.06;100.00;101502.56;7355720;19;20106;-66
2023/10/02 02:09:24;;;;;;;7.07;3.10;;;;;;;19.05;100.00;101506.25;7356692;19;20015;-66
2023/10/02 02:12:05;;;;;;;6.63;2.30;;;;;;;19.04;100.00;101495.78;7355978;19;20037;-65
2023/10/02 02:14:41;;;;;;;5.63;2.70;;;;;;;19.03;100.00;101489.63;7351359;19;20006;-65
2023/10/02 02:17:12;;;;;;;6.70;2.72;;;;;;;19.01;100.00;101488.97;7356550;19;20014;-65
2023/10/02 02:19:49;;;;;;;6.28;3.58;;;;;;;19.00;100.00;101492.66;7358001;19;20371;-66
2023/10/02 02:22:26;;;;;;;9.43;4.25;;;;;;;18.96;100.00;101487.88;7355951;19;20127;-65
2023/10/02 02:24:58;;;;;;;10.13;4.00;;;;;;;18.93;100.00;101493.63;7353570;19;20132;-66
2023/10/02 02:27:25;;;;;;;7.70;4.15;;;;;;;18.93;100.00;101481.09;7353790;19;20030;-65
2023/10/02 02:29:57;;;;;;;8.88;4.13;;;;;;;18.92;100.00;101478.63;7354535;19;20015;-67
2023/10/02 02:35:22;;;;;;;9.23;4.35;;;;;;;18.94;100.00;101476.59;7354737;19;21032;-66
2023/10/02 02:37:52;;;;;;;9.13;4.28;;;;;;;18.92;100.00;101465.28;7351798;19;20014;-66
2023/10/02 02:40:22;;;;;;;10.10;4.68;;;;;;;18.91;100.00;101464.47;7355362;19;20015;-65
2023/10/02 02:42:51;;;;;;;12.38;6.38;;;;;;;18.92;100.00;101489.28;7354499;19;20864;-65
2023/10/02 02:45:29;;;;;;;9.35;4.38;;;;;;;18.94;100.00;101493.44;7355154;19;20074;-65
2023/10/02 02:48:03;;;;;;;10.30;4.68;;;;;;;18.93;100.00;101480.28;7354640;19;20014;-65
2023/10/02 02:50:46;;;;;;;9.15;4.10;;;;;;;18.91;100.00;101477.78;7355331;19;20014;-66
2023/10/02 02:53:22;;;;;;;9.93;5.30;;;;;;;18.89;100.00;101490.53;7354746;19;20019;-65
2023/10/02 02:56:23;;;;;;;13.32;4.88;;;;;;;18.83;100.00;101487.78;7356502;19;20379;-65
2023/10/02 02:58:55;;;;;;;14.95;7.32;;;;;;;18.82;100.00;101478.13;7350961;19;20341;-65
2023/10/02 03:01:23;;;;;;;;;;;;;;;18.83;100.00;101483.28;7358020;19;20021;-65
2023/10/02 03:03:55;;;;;;;11.38;5.65;;;;;;;18.83;100.00;101482.44;7352014;19;20267;-66
2023/10/02 03:06:23;;;;;;;12.23;5.55;;;;;;;18.80;100.00;101475.63;7356980;19;20097;-66
2023/10/02 03:08:52;;;;;;;10.73;5.38;;;;;;;18.80;100.00;101475.63;7354832;19;20676;-64
2023/10/02 03:11:22;;;;;;;10.43;4.95;;;;;;;18.84;100.00;101476.09;7355895;19;20025;-65
2023/10/02 03:13:50;;;;;;;12.10;5.05;;;;;;;18.82;100.00;101476.28;7350601;19;20018;-66
2023/10/02 03:16:28;;;;;;;12.18;5.00;;;;;;;18.79;100.00;101482.81;7352315;19;20333;-65
2023/10/02 03:18:56;;;;;;;13.15;5.45;;;;;;;18.83;100.00;101483.28;7353175;19;20006;-66
2023/10/02 03:21:24;;;;;;;12.15;5.38;;;;;;;18.80;100.00;101478.31;7355213;19;20026;-65
2023/10/02 03:23:54;;;;;;;13.93;5.20;;;;;;;18.81;100.00;101482.63;7354188;19;20014;-65
2023/10/02 03:29:11;;;;;;;9.75;4.90;;;;;;;18.81;100.00;101477.28;7358448;19;20063;-66
2023/10/02 03:31:49;;;;;;;13.18;5.32;;;;;;;18.81;100.00;101477.28;7357087;19;20071;-65
2023/10/02 03:34:29;;;;;;;14.73;5.68;;;;;;;18.81;100.00;101474.63;7362771;19;20025;-65
2023/10/02 03:42:30;;;;;;;13.68;5.40;;;;;;;18.74;100.00;101468.41;7359963;19;20011;-66
2023/10/02 03:45:01;;;;;;;13.57;5.50;;;;;;;18.77;100.00;101465.34;7359033;19;20025;-66
2023/10/02 03:47:36;;;;;;;11.27;5.07;;;;;;;18.79;100.00;101468.69;7360374;19;20015;-65
2023/10/02 03:50:07;;;;;;;16.42;5.75;;;;;;;18.78;100.00;101462.50;7361830;19;20018;-64
2023/10/02 03:52:34;;;;;;;14.10;5.88;;;;;;;18.78;100.00;101467.03;7362653;19;20023;-65
2023/10/02 03:55:17;;;;;;;11.50;5.45;;;;;;;18.76;100.00;101461.03;7358605;19;20493;-65
2023/10/02 03:57:55;;;;;;;17.30;5.63;;;;;;;18.73;100.00;101461.44;7357882;19;20019;-64
2023/10/02 04:00:42;;;;;;;11.50;5.50;;;;;;;18.74;100.00;101458.56;7358460;19;20048;-65
2023/10/02 04:03:11;;;;;;;14.25;5.18;;;;;;;18.74;100.00;101452.41;7361258;19;20427;-65
2023/10/02 04:05:44;;;;;;;12.65;5.88;;;;;;;18.73;100.00;101456.94;7361167;19;20013;-65
2023/10/02 04:08:36;;;;;;;15.13;6.35;;;;;;;18.74;100.00;101453.22;7363668;19;20064;-65
2023/10/02 04:11:03;;;;;;;11.43;5.75;;;;;;;18.74;100.00;101466.56;7361875;19;20021;-64
2023/10/02 04:13:34;;;;;;;17.85;5.82;;;;;;;18.73;100.00;101464.94;7355270;19;20011;-65
2023/10/02 04:18:58;;;;;;;15.95;6.03;;;;;;;18.70;100.00;101464.47;7358535;19;20025;-66
2023/10/02 04:21:28;;;;;;;13.57;5.60;;;;;;;18.69;100.00;101465.50;7360921;19;20021;-65
2023/10/02 04:23:56;;;;;;;14.52;6.05;;;;;;;18.69;100.00;101455.63;7360054;19;20022;-68
2023/10/02 04:26:25;;;;;;;10.38;4.82;;;;;;;18.68;100.00;101454.00;7360704;19;20014;-67
2023/10/02 04:28:58;;;;;;;14.43;5.80;;;;;;;18.71;100.00;101464.28;7357909;19;20006;-65
2023/10/02 04:31:28;;;;;;;11.32;5.22;;;;;;;18.72;100.00;101476.59;7359953;19;20022;-65
2023/10/02 04:34:23;;;;;;;12.65;5.50;;;;;;;18.72;100.00;101468.59;7359908;19;20098;-65
2023/10/02 04:36:51;;;;;;;12.57;5.03;;;;;;;18.73;100.00;101469.44;7362960;19;20035;-65
2023/10/02 04:44:44;;;;;;;15.68;5.57;;;;;;;18.72;100.00;101454.44;7358277;19;20102;-65
2023/10/02 04:47:23;;;;;;;14.43;5.72;;;;;;;18.73;100.00;101464.94;7357826;19;20030;-65
2023/10/02 04:53:39;;;;;;;14.77;6.57;;;;;;;18.74;100.00;101449.75;7360122;19;20025;-65
2023/10/02 04:55:42;;;;;;;15.10;5.60;;;;;;;18.73;100.00;101434.78;7356540;19;20068;-67
2023/10/02 04:58:19;;;;;;;17.33;7.07;;;;;;;18.68;100.00;101435.34;7357162;19;20388;-66
2023/10/02 05:03:37;;;;;;;15.55;6.35;;;;;;;18.71;100.00;101450.94;7358463;19;20054;-65
2023/10/02 05:06:06;;;;;;;16.00;7.00;;;;;;;18.70;100.00;101459.94;7360519;19;20020;-65
2023/10/02 05:11:07;;;;;;;17.00;6.50;;;;;;;18.65;100.00;101459.69;7361164;19;20379;-66
2023/10/02 05:16:35;;;;;;;19.33;7.82;;;;;;;18.63;100.00;101448.41;7359118;19;19927;-66
2023/10/02 05:19:09;;;;;;;14.63;6.18;;;;;;;18.61;100.00;101441.59;7358612;19;20014;-68
2023/10/02 05:21:49;;;;;;;16.25;6.95;;;;;;;18.60;100.00;101437.28;7355924;19;20006;-68
2023/10/02 05:24:18;;;;;;;20.65;7.70;;;;;;;18.62;100.00;101436.09;7359003;19;20018;-66
2023/10/02 05:26:47;;;;;;;20.45;7.43;;;;;;;18.63;100.00;101436.94;7358296;19;20268;-68
2023/10/02 05:32:23;;;;;;;19.58;7.97;;;;;;;18.57;100.00;101429.69;7358858;19;20085;-65
2023/10/02 05:35:45;;;;;;;14.60;6.68;;;;;;;18.55;100.00;101429.03;7358503;19;20318;-66
2023/10/02 05:37:42;;;;;;;16.75;6.20;;;;;;;18.54;100.00;101438.06;7353258;19;20649;-65
2023/10/02 05:45:40;;;;;;;18.15;7.20;;;;;;;18.60;100.00;101443.44;7355489;19;20015;-65
2023/10/02 05:48:19;;;;;;;16.67;7.22;;;;;;;18.59;100.00;101438.31;7358162;19;20574;-65
2023/10/02 05:50:47;;;;;;;17.45;7.15;;;;;;;18.59;100.00;101444.47;7356148;19;20059;-65
2023/10/02 05:53:26;;;;;;;18.30;7.13;;;;;;;18.57;100.00;101440.34;7354603;19;20018;-65
2023/10/02 05:56:12;;;;;;;18.42;7.57;;;;;;;18.56;100.00;101436.84;7355569;19;20660;-65
2023/10/02 05:58:41;;;;;;;17.85;7.85;;;;;;;18.54;100.00;101428.22;7353369;19;20020;-66
2023/10/02 06:01:26;;;;;;;19.00;8.55;;;;;;;18.57;100.00;101427.00;7357223;19;20625;-64
2023/10/02 06:03:56;;;;;;;17.45;7.63;;;;;;;18.53;100.00;101431.06;7356719;19;20014;-65
2023/10/02 06:06:27;;;;;;;19.75;8.40;;;;;;;18.52;100.00;101437.41;7356000;19;20015;-66
2023/10/02 06:09:12;;;;;;;19.75;8.07;;;;;;;18.53;100.00;101441.72;7355249;19;20015;-66
2023/10/02 06:14:27;;;;;;;17.83;7.57;;;;;;;18.47;100.00;101450.47;7352753;19;20112;-65
2023/10/02 06:16:54;;;;;;;18.42;8.35;;;;;;;18.46;100.00;101451.47;7355751;19;20022;-65
2023/10/02 06:19:21;;;;;;;18.13;7.75;;;;;;;18.49;100.00;101453.78;7355074;19;20117;-66
2023/10/02 06:24:28;;;;;;;18.05;8.55;;;;;;;18.50;100.00;101452.75;7355568;19;20621;-65
2023/10/02 06:27:16;;;;;;;16.50;7.50;;;;;;;18.49;100.00;101457.25;7356403;19;20555;-65
2023/10/02 06:29:44;;;;;;;16.65;8.30;;;;;;;18.51;100.00;101459.72;7354510;19;20010;-66
2023/10/02 06:32:14;;;;;;;18.98;7.72;;;;;;;18.51;100.00;101465.06;7356581;19;20030;-67
2023/10/02 06:34:44;;;;;;;16.77;7.25;;;;;;;18.52;100.00;101458.72;7356530;19;20021;-65
2023/10/02 06:37:19;;;;;;;16.02;7.78;;;;;;;18.53;100.00;101469.19;7356869;19;20014;-66
2023/10/02 06:42:48;;;;;;;15.05;6.72;;;;;;;18.54;100.00;101470.84;7351175;19;20752;-66
2023/10/02 06:45:18;;;;;;;18.38;7.88;;;;;;;18.55;100.00;101469.03;7354483;19;20015;-66
2023/10/02 06:47:45;;;;;;;13.20;6.68;;;;;;;18.54;100.00;101476.19;7355372;19;20014;-66
2023/10/02 06:50:30;;;;;;;13.05;7.00;;;;;;;18.55;100.00;101469.84;7353521;19;20081;-65
2023/10/02 06:52:58;;;;;;;13.05;6.22;;;;;;;18.55;100.00;101471.69;7356165;19;20035;-65
2023/10/02 06:55:27;;;;;;;17.10;7.88;;;;;;;18.56;100.00;101482.16;7353055;19;20733;-66
2023/10/02 06:57:54;;;;;;;16.55;6.82;;;;;;;18.54;100.00;101488.72;7354237;19;20251;-65
2023/10/02 07:00:36;;;;;;;16.02;7.40;;;;;;;18.56;100.00;101484.84;7357316;19;20020;-66
2023/10/02 07:03:04;;;;;;;16.33;7.55;;;;;;;18.57;100.00;101483.00;7363495;19;20025;-65
2023/10/02 07:05:34;;;;;;;17.25;7.57;;;;;;;18.55;100.00;101467.19;7360013;19;20094;-66
2023/10/02 07:08:26;;;;;;;17.60;8.05;;;;;;;18.57;100.00;101465.16;7359143;19;21791;-66
2023/10/02 07:10:57;;;;;;;;;;;;;;;18.58;100.00;101453.50;7353684;19;20018;-65
2023/10/02 07:13:24;;;;;;;20.95;8.40;;;;;;;18.55;100.00;101453.84;7351105;19;19918;-65
2023/10/02 07:15:55;;;;;;;14.65;7.35;;;;;;;18.56;100.00;101465.34;7356372;19;20452;-65
2023/10/02 07:18:37;;;;;;;14.75;6.93;;;;;;;18.59;100.00;101451.66;7351484;19;20530;-65
2023/10/02 07:21:08;;;;;;;15.10;6.60;;;;;;;18.61;100.00;101454.94;7354117;19;20776;-66
2023/10/02 07:23:39;;;;;;;18.08;8.57;;;;;;;18.59;100.00;101460.44;7353977;19;20498;-65
2023/10/02 07:26:14;;;;;;;14.18;6.95;;;;;;;18.61;100.00;101454.94;7351459;19;20482;-65
2023/10/02 07:28:50;;;;;;;14.27;6.78;;;;;;;18.61;100.00;101461.09;7338581;19;20042;-65
2023/10/02 07:31:19;;;;;;;13.45;6.55;;;;;;;18.60;100.00;101458.63;7355652;19;20027;-65
2023/10/02 07:33:47;;;;;;;12.35;6.30;;;;;;;18.59;100.00;101455.13;7353444;19;20550;-65
2023/10/02 07:36:14;;;;;;;12.55;6.18;;;;;;;18.59;100.00;101455.13;7356468;19;20719;-64
2023/10/02 07:38:46;;;;;;;13.23;6.28;;;;;;;18.58;100.00;101450.84;7352499;19;20010;-66
2023/10/02 07:41:23;;;;;;;14.23;5.80;;;;;;;18.61;100.00;101449.59;7349435;19;20435;-66
2023/10/02 07:43:53;;;;;;;13.07;6.05;;;;;;;18.62;100.00;101433.44;7347554;19;20499;-65
2023/10/02 07:46:22;;;;;;;14.30;6.35;;;;;;;18.61;100.00;101442.44;7356711;19;20134;-66
2023/10/02 07:49:04;;;;;;;10.18;5.38;;;;;;;18.60;100.00;101445.28;7351662;19;20348;-66
2023/10/02 07:51:36;;;;;;;11.85;5.75;;;;;;;18.60;100.00;101440.78;7355525;19;20712;-65
2023/10/02 07:54:05;;;;;;;12.38;5.70;;;;;;;18.64;100.00;101444.72;7353533;19;20017;-66
2023/10/02 07:56:33;;;;;;;14.80;6.18;;;;;;;18.64;100.00;101441.25;7351935;19;20018;-67
2023/10/02 07:59:03;;;;;;;12.63;5.47;;;;;;;18.64;100.00;101452.72;7351113;19;20050;-66
2023/10/02 08:01:33;;;;;;;14.02;5.35;;;;;;;18.66;100.00;101449.88;7352854;19;20021;-65
2023/10/02 08:04:01;;;;;;;12.70;4.53;;;;;;;18.66;100.00;101444.53;7352135;19;20018;-66
2023/10/02 08:06:36;;;;;;;13.75;6.38;;;;;;;18.67;100.00;101449.69;7352182;19;20040;-65
2023/10/02 08:11:54;;;;;;;11.68;5.28;;;;;;;18.70;100.00;101435.97;7354125;19;20901;-67
2023/10/02 08:14:42;;;;;;;12.50;5.55;;;;;;;18.71;100.00;101436.78;7355821;19;20017;-66
2023/10/02 08:17:27;;;;;;;9.10;4.30;;;;;;;18.72;100.00;101436.59;7359029;19;20124;-66
2023/10/02 08:22:54;;;;;;;9.63;5.20;;;;;;;18.83;100.00;101442.44;7361966;19;20014;-65
2023/10/02 08:25:23;;;;;;;10.63;5.50;;;;;;;18.87;100.00;101447.19;7362624;19;20010;-65
2023/10/02 08:27:57;;;;;;;10.07;4.75;;;;;;;18.84;100.00;101438.75;7361844;19;20018;-66
2023/10/02 08:30:36;;;;;;;10.43;4.88;;;;;;;18.81;100.00;101437.28;7359967;19;20027;-66
2023/10/02 08:33:09;;;;;;;13.70;6.13;;;;;;;18.83;100.00;101437.09;7358803;19;20018;-66
2023/10/02 08:36:01;;;;;;;;;;;;;;;18.82;100.00;101438.13;7363744;19;20014;-66
2023/10/02 08:38:28;;;;;;;11.02;4.75;;;;;;;18.77;100.00;101444.84;7364346;19;19933;-66
2023/10/02 08:40:59;;;;;;;16.42;6.18;;;;;;;18.79;100.00;101450.00;7359262;19;20025;-67
2023/10/02 08:43:28;;;;;;;15.85;6.30;;;;;;;18.80;100.00;101435.63;7355739;19;20015;-65
2023/10/02 08:45:56;;;;;;;12.35;5.82;;;;;;;18.81;100.00;101439.97;7362260;19;20047;-66
2023/10/02 08:48:25;;;;;;;11.80;5.80;;;;;;;18.80;100.00;101431.13;7358042;19;20029;-65
2023/10/02 08:50:58;;;;;;;13.93;6.00;;;;;;;18.84;100.00;101431.59;7362835;19;20034;-65
2023/10/02 08:53:26;;;;;;;9.52;4.85;;;;;;;18.87;100.00;101419.69;7361748;19;20040;-65
2023/10/02 08:56:04;;;;;;;9.93;5.43;;;;;;;18.86;100.00;101418.03;7364916;19;20029;-66
2023/10/02 08:58:31;;;;;;;13.85;7.25;;;;;;;18.85;100.00;101419.06;7360917;19;20046;-65
2023/10/02 09:06:41;;;;;;;9.93;5.57;;;;;;;18.91;100.00;101424.44;7359704;19;20645;-65
2023/10/02 09:11:44;;;;;;;12.93;6.13;;;;;;;18.93;100.00;101419.75;7360992;19;20525;-65
2023/10/02 09:17:21;;;;;;;10.45;5.00;;;;;;;19.00;100.00;101419.78;7358710;19;20022;-65
2023/10/02 09:20:02;;;;;;;9.35;4.43;;;;;;;19.02;100.00;101418.59;7357963;19;20808;-66
2023/10/02 09:22:44;;;;;;;13.07;6.47;;;;;;;19.05;100.00;101415.53;7358203;19;20479;-65
2023/10/02 09:25:26;;;;;;;10.98;5.97;;;;;;;19.09;100.00;101419.47;7358997;19;20022;-65
2023/10/02 09:28:00;;;;;;;13.23;6.40;;;;;;;19.13;100.00;101412.75;7357913;19;20021;-66
2023/10/02 09:33:18;;;;;;;9.48;5.55;;;;;;;19.19;100.00;101424.47;7360066;19;20022;-65
2023/10/02 09:36:00;;;;;;;10.23;5.57;;;;;;;19.22;100.00;101424.06;7360600;19;20542;-65
2023/10/02 09:38:49;;;;;;;11.40;5.75;;;;;;;19.26;100.00;101425.34;7359856;19;20026;-65
2023/10/02 09:41:20;;;;;;;11.60;6.57;;;;;;;19.28;100.00;101419.81;7358794;19;20006;-66
2023/10/02 09:43:49;;;;;;;12.80;6.40;;;;;;;19.27;100.00;101418.97;7354564;19;20018;-65
2023/10/02 09:46:24;;;;;;;10.50;5.57;;;;;;;19.31;100.00;101422.91;7355736;19;20014;-65
2023/10/02 09:49:03;;;;;;;10.73;5.90;;;;;;;19.33;100.00;101428.06;7343231;19;20090;-65
2023/10/02 09:52:07;;;;;;;12.07;6.53;;;;;;;19.35;100.00;101429.50;7350600;19;20019;-66
2023/10/02 09:55:04;;;;;;;10.23;5.63;;;;;;;19.37;100.00;101434.66;7355277;19;20018;-65
2023/10/02 09:57:38;;;;;;;11.35;6.60;;;;;;;19.38;100.00;101428.28;7354648;19;20260;-66
2023/10/02 10:03:22;;;;;;;13.55;6.88;;;;;;;19.47;100.00;101411.13;7357087;19;21640;-65
2023/10/02 10:06:07;;;;;;;10.02;5.80;;;;;;;19.47;100.00;101403.13;7356109;19;20835;-65
2023/10/02 10:11:36;;;;;;;11.60;6.40;;;;;;;19.51;99.81;101397.19;7358297;19;20018;-65
2023/10/02 10:14:35;;;;;;;11.40;7.22;;;;;;;19.53;100.00;101397.00;7355718;19;20018;-66
2023/10/02 10:17:13;;;;;;;13.45;6.45;;;;;;;19.54;99.87;101390.63;7355812;19;20018;-65
2023/10/02 10:20:22;;;;;;;17.05;7.15;;;;;;;19.57;99.91;101388.38;7356340;19;20414;-65
2023/10/02 10:22:53;;;;;;;12.50;7.10;;;;;;;19.61;99.91;101381.63;7354887;19;20253;-66
2023/10/02 10:27:58;;;;;;;12.63;6.97;;;;;;;19.70;99.29;101368.94;7351489;19;20038;-66
2023/10/02 10:35:41;;;;;;;12.43;6.07;;;;;;;19.99;98.01;101375.81;7349812;19;20010;-65
2023/10/02 10:41:00;;;;;;;11.77;5.38;;;;;;;20.10;96.85;101367.22;7323861;19;20018;-65
2023/10/02 10:43:55;;;;;;;11.20;6.13;;;;;;;20.13;96.91;101366.00;7321832;19;20022;-65
2023/10/02 10:46:27;;;;;;;9.50;5.88;;;;;;;20.17;97.10;101372.56;7352582;19;20010;-65
2023/10/02 10:49:08;;;;;;;10.15;5.57;;;;;;;20.27;96.79;101378.34;7345747;19;20367;-65
2023/10/02 10:51:39;;;;;;;11.88;6.63;;;;;;;20.31;95.48;101363.59;7355151;19;20134;-66
2023/10/02 10:54:27;;;;;;;13.95;7.18;;;;;;;20.28;95.30;101364.78;7355106;19;20018;-65
2023/10/02 10:57:26;;;;;;;13.23;7.03;;;;;;;20.27;95.74;101355.13;7352545;19;20044;-66
2023/10/02 11:00:31;;;;;;;12.13;7.38;;;;;;;20.29;95.71;101355.75;7356929;19;20042;-66
2023/10/02 11:03:14;;;;;;;11.52;6.57;;;;;;;20.32;95.68;101358.03;7357938;19;20017;-65
2023/10/02 11:05:43;;;;;;;12.27;6.93;;;;;;;20.34;95.69;101356.00;7360480;19;20547;-65
2023/10/02 11:08:23;;;;;;;15.73;8.15;;;;;;;20.33;95.23;101366.88;7358907;19;20010;-66
2023/10/02 11:11:04;;;;;;;11.07;6.40;;;;;;;20.36;95.19;101366.50;7358266;19;20022;-64
2023/10/02 11:13:51;;;;;;;11.07;7.00;;;;;;;20.36;94.96;101350.44;7355717;19;20309;-65
2023/10/02 11:16:37;;;;;;;12.85;7.15;;;;;;;20.33;95.22;101342.81;7360158;19;20029;-65
2023/10/02 11:22:16;;;;;;;13.05;6.45;;;;;;;20.43;95.46;101341.41;7356582;19;20086;-66
2023/10/02 11:24:53;;;;;;;;;;;;;;;20.51;95.20;101350.25;7352551;19;20078;-66
2023/10/02 11:27:57;;;;;;;11.38;6.35;;;;;;;20.45;94.31;101328.66;7352161;19;20030;-68
2023/10/02 11:30:34;;;;;;;12.02;5.82;;;;;;;20.41;94.52;101326.59;7357021;19;20119;-66
2023/10/02 11:33:04;;;;;;;13.45;5.97;;;;;;;20.43;94.32;101335.22;7355365;19;20542;-65
2023/10/02 11:35:43;;;;;;;10.73;5.95;;;;;;;20.46;94.25;101334.84;7356313;19;20015;-65
2023/10/02 11:38:12;;;;;;;12.35;5.85;;;;;;;20.49;95.55;101324.53;7354366;19;20029;-65
2023/10/02 11:40:43;;;;;;;13.05;5.57;;;;;;;20.51;95.78;101335.03;7353581;19;20013;-65
2023/10/02 11:43:11;;;;;;;13.30;5.90;;;;;;;20.50;94.93;101325.38;7350109;19;20022;-64
2023/10/02 11:45:38;;;;;;;10.18;5.70;;;;;;;20.49;94.24;101329.06;7350135;19;20086;-66
2023/10/02 11:48:09;;;;;;;8.77;5.30;;;;;;;20.49;94.11;101308.50;7354548;19;20026;-65
2023/10/02 11:50:38;;;;;;;10.13;5.60;;;;;;;20.55;93.74;101311.38;7358016;19;20011;-64
2023/10/02 11:53:05;;;;;;;9.75;5.57;;;;;;;20.54;93.63;101294.50;7361118;19;20018;-66
2023/10/02 11:55:33;;;;;;;8.30;5.00;;;;;;;20.56;94.18;101294.31;7364017;19;20013;-65
2023/10/02 11:58:00;;;;;;;8.95;4.90;;;;;;;20.55;93.67;101296.16;7363543;19;20014;-65
2023/10/02 12:00:28;;;;;;;9.35;4.50;;;;;;;20.58;93.94;101301.06;7361268;19;21152;-65
2023/10/02 12:02:56;;;;;;;8.05;4.15;;;;;;;20.59;94.01;101289.34;7359009;19;20048;-65
2023/10/02 12:05:26;;;;;;;10.27;5.22;;;;;;;20.61;93.87;101283.81;7359505;19;20031;-65
2023/10/02 12:07:53;;;;;;;9.90;5.35;;;;;;;20.61;93.63;101279.28;7362805;19;20049;-65
2023/10/02 12:10:31;;;;;;;9.77;4.85;;;;;;;20.63;93.94;101281.72;7357134;19;20448;-66
2023/10/02 12:13:01;;;;;;;11.05;5.15;;;;;;;20.61;94.08;101273.94;7355551;19;20040;-65
2023/10/02 12:15:28;;;;;;;9.23;4.93;;;;;;;20.60;94.39;101274.13;7356927;19;20018;-66
2023/10/02 12:17:56;;;;;;;11.73;5.05;;;;;;;20.60;94.14;101274.97;7361974;19;20019;-65
2023/10/02 12:20:23;;;;;;;9.30;5.15;;;;;;;20.62;94.02;101272.88;7360926;19;20014;-65
2023/10/02 12:22:50;;;;;;;7.50;4.05;;;;;;;20.64;94.07;101276.19;7356632;19;20479;-66
2023/10/02 12:25:18;;;;;;;7.70;4.03;;;;;;;20.65;94.00;101280.50;7359664;19;20038;-65
2023/10/02 12:27:45;;;;;;;9.85;4.55;;;;;;;20.67;94.12;101269.63;7358283;19;20047;-65
2023/10/02 12:30:16;;;;;;;11.43;5.32;;;;;;;20.69;94.19;101275.56;7357560;19;20037;-66
2023/10/02 12:32:54;;;;;;;11.98;5.28;;;;;;;20.70;94.13;101263.84;7360641;19;21160;-65
2023/10/02 12:35:21;;;;;;;9.32;4.82;;;;;;;20.71;94.47;101277.00;7336168;19;20022;-66
2023/10/02 12:37:50;;;;;;;9.43;4.68;;;;;;;20.71;94.49;101271.66;7358648;19;20018;-65
2023/10/02 12:40:21;;;;;;;9.13;5.10;;;;;;;20.72;94.03;101269.81;7357306;19;20115;-66
2023/10/02 12:42:48;;;;;;;8.07;4.35;;;;;;;20.71;93.79;101274.34;7355391;19;20473;-65
2023/10/02 12:45:17;;;;;;;9.40;5.38;;;;;;;20.69;94.23;101273.72;7359570;19;20030;-65
2023/10/02 12:47:44;;;;;;;10.88;4.55;;;;;;;20.66;94.37;101271.47;7353995;19;20022;-65
2023/10/02 12:50:12;;;;;;;8.82;5.50;;;;;;;20.67;94.57;101264.25;7358931;19;20019;-67
2023/10/02 12:52:39;;;;;;;10.57;5.28;;;;;;;20.67;94.49;101254.34;7354962;19;20025;-66
2023/10/02 12:55:07;;;;;;;9.95;5.35;;;;;;;20.66;94.65;101259.94;7361165;19;21639;-66
2023/10/02 12:57:37;;;;;;;12.25;5.55;;;;;;;20.63;94.25;101253.13;7358623;19;20034;-65
2023/10/02 13:00:16;;;;;;;8.95;5.15;;;;;;;20.62;94.72;101250.69;7356719;19;20089;-64
2023/10/02 13:02:49;;;;;;;13.07;5.63;;;;;;;20.62;95.31;101248.81;7359705;19;20118;-66
2023/10/02 13:05:18;;;;;;;8.30;4.80;;;;;;;20.63;95.51;101245.13;7364127;19;20048;-64
2023/10/02 13:07:47;;;;;;;13.65;5.72;;;;;;;20.64;95.65;101238.75;7356508;19;20015;-65
2023/10/02 13:10:19;;;;;;;10.05;5.60;;;;;;;20.66;95.14;101246.56;7357120;19;20842;-65
2023/10/02 13:12:49;;;;;;;10.68;5.28;;;;;;;20.65;94.65;101258.28;7357901;19;20363;-66
2023/10/02 13:15:16;;;;;;;10.57;5.57;;;;;;;20.62;94.47;101234.66;7358294;19;20014;-66